Mount Ulla, North Carolina
Current Conditions -  °F | °C
As of 10:15 AM on Friday 31 Oct 2014 (Local Time) from KRUQ Reporting Station
Clear Clear  
Wind Chill: 46°   Ceiling: Unl
Heat Index: 48°   Visibility: 10mi
Dew Point: 39°   Wind: 6mph
Humidity: 69%   Direction: 30°NNE
Pressure: 29.96"   Gusts: NA
Location:  35.66°N, 80.73°W
Report Text: KRUQ 311415Z AUTO 03005KT 10SM CLR 09/04 A2996 RMK AO2 T00910037
Loading
Personal Weather Stations






























Interactive Weather Map New forecast layout! Learn more

10-Day Weather Forecast

Advertisements
Track Severe Weather on mobile